sensor_id;sensor_type;location;lat;lon;timestamp;P1;durP1;ratioP1;P2;durP2;ratioP2
45065;SDS011;30830;53.704;10.004;2023-12-28T00:00:42;6.32;;;2.15;;
45065;SDS011;30830;53.704;10.004;2023-12-28T00:03:07;2.67;;;1.75;;
45065;SDS011;30830;53.704;10.004;2023-12-28T00:05:33;3.38;;;1.90;;
45065;SDS011;30830;53.704;10.004;2023-12-28T00:07:59;4.15;;;2.40;;
45065;SDS011;30830;53.704;10.004;2023-12-28T00:10:25;1.98;;;1.75;;
45065;SDS011;30830;53.704;10.004;2023-12-28T00:12:52;3.38;;;1.80;;
45065;SDS011;30830;53.704;10.004;2023-12-28T00:15:19;3.60;;;1.60;;
45065;SDS011;30830;53.704;10.004;2023-12-28T00:17:45;4.35;;;1.80;;
45065;SDS011;30830;53.704;10.004;2023-12-28T00:20:11;1.80;;;1.65;;
45065;SDS011;30830;53.704;10.004;2023-12-28T00:22:37;4.20;;;2.15;;
45065;SDS011;30830;53.704;10.004;2023-12-28T00:25:03;2.17;;;1.77;;
45065;SDS011;30830;53.704;10.004;2023-12-28T00:27:29;3.75;;;1.70;;
45065;SDS011;30830;53.704;10.004;2023-12-28T00:29:55;4.50;;;1.77;;
45065;SDS011;30830;53.704;10.004;2023-12-28T00:32:21;2.17;;;1.60;;
45065;SDS011;30830;53.704;10.004;2023-12-28T00:34:46;4.03;;;1.98;;
45065;SDS011;30830;53.704;10.004;2023-12-28T00:37:12;2.97;;;1.60;;
45065;SDS011;30830;53.704;10.004;2023-12-28T00:39:37;3.58;;;1.85;;
45065;SDS011;30830;53.704;10.004;2023-12-28T00:42:04;2.58;;;1.88;;
45065;SDS011;30830;53.704;10.004;2023-12-28T00:44:30;5.28;;;1.90;;
45065;SDS011;30830;53.704;10.004;2023-12-28T00:46:55;2.28;;;1.77;;
45065;SDS011;30830;53.704;10.004;2023-12-28T00:49:21;1.92;;;1.73;;
45065;SDS011;30830;53.704;10.004;2023-12-28T00:51:46;2.60;;;2.15;;
45065;SDS011;30830;53.704;10.004;2023-12-28T00:54:12;2.38;;;2.10;;
45065;SDS011;30830;53.704;10.004;2023-12-28T00:56:37;2.92;;;1.65;;
45065;SDS011;30830;53.704;10.004;2023-12-28T00:59:03;4.63;;;1.75;;
45065;SDS011;30830;53.704;10.004;2023-12-28T01:01:28;3.67;;;1.70;;
45065;SDS011;30830;53.704;10.004;2023-12-28T01:03:57;2.30;;;1.75;;
45065;SDS011;30830;53.704;10.004;2023-12-28T01:06:22;2.53;;;1.73;;
45065;SDS011;30830;53.704;10.004;2023-12-28T01:08:52;1.80;;;1.67;;
45065;SDS011;30830;53.704;10.004;2023-12-28T01:11:18;1.95;;;1.63;;
45065;SDS011;30830;53.704;10.004;2023-12-28T01:13:44;3.70;;;1.67;;
45065;SDS011;30830;53.704;10.004;2023-12-28T01:16:11;4.57;;;2.25;;
45065;SDS011;30830;53.704;10.004;2023-12-28T01:18:37;3.95;;;2.03;;
45065;SDS011;30830;53.704;10.004;2023-12-28T01:21:03;3.20;;;2.22;;
45065;SDS011;30830;53.704;10.004;2023-12-28T01:23:29;4.45;;;2.10;;
45065;SDS011;30830;53.704;10.004;2023-12-28T01:25:55;2.33;;;2.03;;
45065;SDS011;30830;53.704;10.004;2023-12-28T01:28:21;2.03;;;1.73;;
45065;SDS011;30830;53.704;10.004;2023-12-28T01:30:47;4.30;;;2.20;;
45065;SDS011;30830;53.704;10.004;2023-12-28T01:33:12;4.90;;;2.60;;
45065;SDS011;30830;53.704;10.004;2023-12-28T01:35:38;5.10;;;2.58;;
45065;SDS011;30830;53.704;10.004;2023-12-28T01:38:03;4.57;;;1.95;;
45065;SDS011;30830;53.704;10.004;2023-12-28T01:40:30;3.35;;;2.05;;
45065;SDS011;30830;53.704;10.004;2023-12-28T01:42:55;3.65;;;2.38;;
45065;SDS011;30830;53.704;10.004;2023-12-28T01:45:21;3.22;;;2.33;;
45065;SDS011;30830;53.704;10.004;2023-12-28T01:47:47;3.55;;;2.22;;
45065;SDS011;30830;53.704;10.004;2023-12-28T01:50:13;4.43;;;2.45;;
45065;SDS011;30830;53.704;10.004;2023-12-28T01:52:39;2.97;;;2.17;;
45065;SDS011;30830;53.704;10.004;2023-12-28T01:55:05;2.63;;;2.25;;
45065;SDS011;30830;53.704;10.004;2023-12-28T01:57:32;2.25;;;2.05;;
45065;SDS011;30830;53.704;10.004;2023-12-28T01:59:59;4.53;;;2.30;;
45065;SDS011;30830;53.704;10.004;2023-12-28T02:02:26;6.32;;;2.70;;
45065;SDS011;30830;53.704;10.004;2023-12-28T02:04:52;2.30;;;2.08;;
45065;SDS011;30830;53.704;10.004;2023-12-28T02:07:19;4.28;;;2.22;;
45065;SDS011;30830;53.704;10.004;2023-12-28T02:09:46;5.25;;;2.53;;
45065;SDS011;30830;53.704;10.004;2023-12-28T02:12:12;3.85;;;2.65;;
45065;SDS011;30830;53.704;10.004;2023-12-28T02:14:38;3.40;;;2.50;;
45065;SDS011;30830;53.704;10.004;2023-12-28T02:17:04;5.72;;;2.80;;
45065;SDS011;30830;53.704;10.004;2023-12-28T02:22:17;3.50;;;2.50;;
45065;SDS011;30830;53.704;10.004;2023-12-28T02:27:27;4.30;;;2.47;;
45065;SDS011;30830;53.704;10.004;2023-12-28T02:29:54;6.45;;;2.20;;
45065;SDS011;30830;53.704;10.004;2023-12-28T02:32:22;3.83;;;2.45;;
45065;SDS011;30830;53.704;10.004;2023-12-28T02:34:57;4.25;;;2.42;;
45065;SDS011;30830;53.704;10.004;2023-12-28T02:37:29;2.75;;;2.17;;
45065;SDS011;30830;53.704;10.004;2023-12-28T02:39:57;3.35;;;2.72;;
45065;SDS011;30830;53.704;10.004;2023-12-28T02:42:23;3.75;;;2.50;;
45065;SDS011;30830;53.704;10.004;2023-12-28T02:44:49;2.60;;;2.35;;
45065;SDS011;30830;53.704;10.004;2023-12-28T02:47:15;2.92;;;2.58;;
45065;SDS011;30830;53.704;10.004;2023-12-28T02:49:40;3.50;;;2.20;;
45065;SDS011;30830;53.704;10.004;2023-12-28T02:52:06;3.85;;;2.45;;
45065;SDS011;30830;53.704;10.004;2023-12-28T02:54:31;2.67;;;2.03;;
45065;SDS011;30830;53.704;10.004;2023-12-28T02:56:57;2.85;;;2.60;;
45065;SDS011;30830;53.704;10.004;2023-12-28T02:59:23;5.53;;;2.75;;
45065;SDS011;30830;53.704;10.004;2023-12-28T03:01:49;3.72;;;1.98;;
45065;SDS011;30830;53.704;10.004;2023-12-28T03:04:14;3.03;;;2.20;;
45065;SDS011;30830;53.704;10.004;2023-12-28T03:06:40;2.55;;;2.30;;
45065;SDS011;30830;53.704;10.004;2023-12-28T03:09:06;3.08;;;2.10;;
45065;SDS011;30830;53.704;10.004;2023-12-28T03:11:31;3.90;;;2.88;;
45065;SDS011;30830;53.704;10.004;2023-12-28T03:13:57;2.70;;;2.20;;
45065;SDS011;30830;53.704;10.004;2023-12-28T03:16:22;3.92;;;2.17;;
45065;SDS011;30830;53.704;10.004;2023-12-28T03:18:48;4.15;;;2.80;;
45065;SDS011;30830;53.704;10.004;2023-12-28T03:21:13;2.88;;;2.40;;
45065;SDS011;30830;53.704;10.004;2023-12-28T03:23:39;3.65;;;2.38;;
45065;SDS011;30830;53.704;10.004;2023-12-28T03:26:04;2.80;;;2.17;;
45065;SDS011;30830;53.704;10.004;2023-12-28T03:28:30;4.95;;;2.58;;
45065;SDS011;30830;53.704;10.004;2023-12-28T03:30:56;3.13;;;2.35;;
45065;SDS011;30830;53.704;10.004;2023-12-28T03:33:22;2.78;;;2.53;;
45065;SDS011;30830;53.704;10.004;2023-12-28T03:35:47;2.88;;;2.42;;
45065;SDS011;30830;53.704;10.004;2023-12-28T03:38:13;2.80;;;2.53;;
45065;SDS011;30830;53.704;10.004;2023-12-28T03:40:38;6.53;;;2.97;;
45065;SDS011;30830;53.704;10.004;2023-12-28T03:43:04;5.57;;;2.38;;
45065;SDS011;30830;53.704;10.004;2023-12-28T03:45:29;3.83;;;2.60;;
45065;SDS011;30830;53.704;10.004;2023-12-28T03:47:55;3.38;;;2.33;;
45065;SDS011;30830;53.704;10.004;2023-12-28T03:50:20;3.13;;;2.42;;
45065;SDS011;30830;53.704;10.004;2023-12-28T03:52:46;2.60;;;2.40;;
45065;SDS011;30830;53.704;10.004;2023-12-28T03:55:11;2.55;;;2.20;;
45065;SDS011;30830;53.704;10.004;2023-12-28T03:57:37;5.10;;;2.97;;
45065;SDS011;30830;53.704;10.004;2023-12-28T04:00:04;7.82;;;2.78;;
45065;SDS011;30830;53.704;10.004;2023-12-28T04:02:30;6.32;;;2.50;;
45065;SDS011;30830;53.704;10.004;2023-12-28T04:04:56;2.60;;;2.30;;
45065;SDS011;30830;53.704;10.004;2023-12-28T04:07:23;4.55;;;3.17;;
45065;SDS011;30830;53.704;10.004;2023-12-28T04:09:49;2.70;;;2.35;;
45065;SDS011;30830;53.704;10.004;2023-12-28T04:12:15;5.93;;;2.90;;
45065;SDS011;30830;53.704;10.004;2023-12-28T04:14:40;4.22;;;2.65;;
45065;SDS011;30830;53.704;10.004;2023-12-28T04:17:06;3.85;;;2.25;;
45065;SDS011;30830;53.704;10.004;2023-12-28T04:19:31;5.07;;;2.42;;
45065;SDS011;30830;53.704;10.004;2023-12-28T04:21:57;4.97;;;2.67;;
45065;SDS011;30830;53.704;10.004;2023-12-28T04:24:22;3.45;;;2.83;;
45065;SDS011;30830;53.704;10.004;2023-12-28T04:26:48;5.63;;;2.95;;
45065;SDS011;30830;53.704;10.004;2023-12-28T04:29:13;2.78;;;2.38;;
45065;SDS011;30830;53.704;10.004;2023-12-28T04:31:40;3.38;;;2.63;;
45065;SDS011;30830;53.704;10.004;2023-12-28T04:34:06;9.18;;;2.70;;
45065;SDS011;30830;53.704;10.004;2023-12-28T04:36:38;4.10;;;2.90;;
45065;SDS011;30830;53.704;10.004;2023-12-28T04:39:05;5.20;;;3.05;;
45065;SDS011;30830;53.704;10.004;2023-12-28T04:41:31;3.05;;;2.25;;
45065;SDS011;30830;53.704;10.004;2023-12-28T04:43:57;4.60;;;2.83;;
45065;SDS011;30830;53.704;10.004;2023-12-28T04:46:22;3.75;;;2.13;;
45065;SDS011;30830;53.704;10.004;2023-12-28T04:48:48;4.70;;;2.97;;
45065;SDS011;30830;53.704;10.004;2023-12-28T04:51:13;4.63;;;2.83;;
45065;SDS011;30830;53.704;10.004;2023-12-28T04:53:39;4.00;;;2.50;;
45065;SDS011;30830;53.704;10.004;2023-12-28T04:56:05;5.45;;;2.50;;
45065;SDS011;30830;53.704;10.004;2023-12-28T04:58:31;3.33;;;2.80;;
45065;SDS011;30830;53.704;10.004;2023-12-28T05:00:56;3.92;;;2.17;;
45065;SDS011;30830;53.704;10.004;2023-12-28T05:03:22;3.90;;;1.90;;
45065;SDS011;30830;53.704;10.004;2023-12-28T05:05:47;3.90;;;2.47;;
45065;SDS011;30830;53.704;10.004;2023-12-28T05:08:13;3.28;;;2.35;;
45065;SDS011;30830;53.704;10.004;2023-12-28T05:10:38;5.10;;;3.00;;
45065;SDS011;30830;53.704;10.004;2023-12-28T05:13:04;4.10;;;2.60;;
45065;SDS011;30830;53.704;10.004;2023-12-28T05:15:29;4.90;;;2.65;;
45065;SDS011;30830;53.704;10.004;2023-12-28T05:17:55;3.40;;;2.25;;
45065;SDS011;30830;53.704;10.004;2023-12-28T05:20:21;3.97;;;2.67;;
45065;SDS011;30830;53.704;10.004;2023-12-28T05:22:46;6.15;;;2.70;;
45065;SDS011;30830;53.704;10.004;2023-12-28T05:25:12;2.80;;;2.28;;
45065;SDS011;30830;53.704;10.004;2023-12-28T05:27:38;3.70;;;2.40;;
45065;SDS011;30830;53.704;10.004;2023-12-28T05:30:04;4.15;;;2.63;;
45065;SDS011;30830;53.704;10.004;2023-12-28T05:32:30;3.80;;;2.67;;
45065;SDS011;30830;53.704;10.004;2023-12-28T05:34:56;3.05;;;2.47;;
45065;SDS011;30830;53.704;10.004;2023-12-28T05:37:21;3.83;;;2.60;;
45065;SDS011;30830;53.704;10.004;2023-12-28T05:39:47;4.53;;;2.55;;
45065;SDS011;30830;53.704;10.004;2023-12-28T05:42:12;2.95;;;2.20;;
45065;SDS011;30830;53.704;10.004;2023-12-28T05:44:38;5.38;;;2.10;;
45065;SDS011;30830;53.704;10.004;2023-12-28T05:47:03;5.18;;;2.40;;
45065;SDS011;30830;53.704;10.004;2023-12-28T05:49:29;5.95;;;2.50;;
45065;SDS011;30830;53.704;10.004;2023-12-28T05:51:55;3.92;;;2.22;;
45065;SDS011;30830;53.704;10.004;2023-12-28T05:54:21;3.70;;;2.50;;
45065;SDS011;30830;53.704;10.004;2023-12-28T05:56:46;4.10;;;2.55;;
45065;SDS011;30830;53.704;10.004;2023-12-28T05:59:12;8.45;;;2.55;;
45065;SDS011;30830;53.704;10.004;2023-12-28T06:01:41;4.80;;;2.45;;
45065;SDS011;30830;53.704;10.004;2023-12-28T06:04:08;3.72;;;2.67;;
45065;SDS011;30830;53.704;10.004;2023-12-28T06:06:33;3.95;;;2.30;;
45065;SDS011;30830;53.704;10.004;2023-12-28T06:08:59;6.00;;;2.63;;
45065;SDS011;30830;53.704;10.004;2023-12-28T06:11:25;8.35;;;2.75;;
45065;SDS011;30830;53.704;10.004;2023-12-28T06:13:50;3.15;;;2.25;;
45065;SDS011;30830;53.704;10.004;2023-12-28T06:16:16;6.20;;;2.78;;
45065;SDS011;30830;53.704;10.004;2023-12-28T06:18:41;6.93;;;2.92;;
45065;SDS011;30830;53.704;10.004;2023-12-28T06:21:07;4.20;;;2.63;;
45065;SDS011;30830;53.704;10.004;2023-12-28T06:23:33;4.57;;;2.97;;
45065;SDS011;30830;53.704;10.004;2023-12-28T06:26:03;5.65;;;3.00;;
45065;SDS011;30830;53.704;10.004;2023-12-28T06:28:31;5.60;;;2.53;;
45065;SDS011;30830;53.704;10.004;2023-12-28T06:30:57;3.80;;;2.30;;
45065;SDS011;30830;53.704;10.004;2023-12-28T06:33:25;4.15;;;2.63;;
45065;SDS011;30830;53.704;10.004;2023-12-28T06:35:54;3.00;;;2.38;;
45065;SDS011;30830;53.704;10.004;2023-12-28T06:38:20;5.10;;;2.33;;
45065;SDS011;30830;53.704;10.004;2023-12-28T06:40:45;6.82;;;2.83;;
45065;SDS011;30830;53.704;10.004;2023-12-28T06:43:11;6.13;;;2.65;;
45065;SDS011;30830;53.704;10.004;2023-12-28T06:45:36;5.50;;;2.20;;
45065;SDS011;30830;53.704;10.004;2023-12-28T06:48:03;4.72;;;2.67;;
45065;SDS011;30830;53.704;10.004;2023-12-28T06:50:29;7.82;;;2.55;;
45065;SDS011;30830;53.704;10.004;2023-12-28T06:52:55;4.53;;;2.30;;
45065;SDS011;30830;53.704;10.004;2023-12-28T06:55:20;4.13;;;2.45;;
45065;SDS011;30830;53.704;10.004;2023-12-28T06:57:46;3.15;;;2.80;;
45065;SDS011;30830;53.704;10.004;2023-12-28T07:00:12;5.38;;;2.58;;
45065;SDS011;30830;53.704;10.004;2023-12-28T07:02:38;3.95;;;2.45;;
45065;SDS011;30830;53.704;10.004;2023-12-28T07:05:04;3.92;;;2.50;;
45065;SDS011;30830;53.704;10.004;2023-12-28T07:07:29;6.13;;;2.42;;
45065;SDS011;30830;53.704;10.004;2023-12-28T07:09:55;5.28;;;2.63;;
45065;SDS011;30830;53.704;10.004;2023-12-28T07:12:20;4.85;;;2.47;;
45065;SDS011;30830;53.704;10.004;2023-12-28T07:14:46;6.88;;;2.88;;
45065;SDS011;30830;53.704;10.004;2023-12-28T07:17:12;2.80;;;2.17;;
45065;SDS011;30830;53.704;10.004;2023-12-28T07:19:42;3.53;;;2.10;;
45065;SDS011;30830;53.704;10.004;2023-12-28T07:22:10;6.80;;;2.38;;
45065;SDS011;30830;53.704;10.004;2023-12-28T07:24:36;3.38;;;2.20;;
45065;SDS011;30830;53.704;10.004;2023-12-28T07:27:01;4.03;;;2.13;;
45065;SDS011;30830;53.704;10.004;2023-12-28T07:29:27;4.35;;;1.85;;
45065;SDS011;30830;53.704;10.004;2023-12-28T07:31:53;4.90;;;2.13;;
45065;SDS011;30830;53.704;10.004;2023-12-28T07:34:19;7.97;;;2.40;;
45065;SDS011;30830;53.704;10.004;2023-12-28T07:36:44;5.00;;;2.70;;
45065;SDS011;30830;53.704;10.004;2023-12-28T07:39:10;8.93;;;2.60;;
45065;SDS011;30830;53.704;10.004;2023-12-28T07:41:36;4.78;;;2.25;;
45065;SDS011;30830;53.704;10.004;2023-12-28T07:44:01;2.53;;;1.98;;
45065;SDS011;30830;53.704;10.004;2023-12-28T07:46:27;3.33;;;1.90;;
45065;SDS011;30830;53.704;10.004;2023-12-28T07:48:52;7.38;;;2.30;;
45065;SDS011;30830;53.704;10.004;2023-12-28T07:51:18;4.63;;;2.15;;
45065;SDS011;30830;53.704;10.004;2023-12-28T07:53:44;5.20;;;2.42;;
45065;SDS011;30830;53.704;10.004;2023-12-28T07:56:09;5.55;;;2.33;;
45065;SDS011;30830;53.704;10.004;2023-12-28T07:58:35;4.57;;;1.80;;
45065;SDS011;30830;53.704;10.004;2023-12-28T08:01:02;4.38;;;2.33;;
45065;SDS011;30830;53.704;10.004;2023-12-28T08:03:28;7.15;;;2.63;;
45065;SDS011;30830;53.704;10.004;2023-12-28T08:05:53;6.80;;;2.50;;
45065;SDS011;30830;53.704;10.004;2023-12-28T08:08:19;3.65;;;2.15;;
45065;SDS011;30830;53.704;10.004;2023-12-28T08:10:45;6.15;;;2.22;;
45065;SDS011;30830;53.704;10.004;2023-12-28T08:13:10;3.25;;;1.73;;
45065;SDS011;30830;53.704;10.004;2023-12-28T08:15:36;4.40;;;2.92;;
45065;SDS011;30830;53.704;10.004;2023-12-28T08:18:01;4.60;;;2.30;;
45065;SDS011;30830;53.704;10.004;2023-12-28T08:20:27;5.88;;;2.30;;
45065;SDS011;30830;53.704;10.004;2023-12-28T08:22:53;3.13;;;1.83;;
45065;SDS011;30830;53.704;10.004;2023-12-28T08:25:18;5.35;;;2.00;;
45065;SDS011;30830;53.704;10.004;2023-12-28T08:27:44;5.70;;;2.40;;
45065;SDS011;30830;53.704;10.004;2023-12-28T08:30:10;6.20;;;2.00;;
45065;SDS011;30830;53.704;10.004;2023-12-28T08:32:35;8.75;;;2.03;;
45065;SDS011;30830;53.704;10.004;2023-12-28T08:35:01;4.45;;;2.00;;
45065;SDS011;30830;53.704;10.004;2023-12-28T08:37:27;7.35;;;2.47;;
45065;SDS011;30830;53.704;10.004;2023-12-28T08:39:53;2.80;;;1.80;;
45065;SDS011;30830;53.704;10.004;2023-12-28T08:42:20;5.45;;;2.40;;
45065;SDS011;30830;53.704;10.004;2023-12-28T08:44:45;4.13;;;1.65;;
45065;SDS011;30830;53.704;10.004;2023-12-28T08:47:11;3.33;;;1.88;;
45065;SDS011;30830;53.704;10.004;2023-12-28T08:49:36;9.05;;;2.30;;
45065;SDS011;30830;53.704;10.004;2023-12-28T08:52:02;2.75;;;1.63;;
45065;SDS011;30830;53.704;10.004;2023-12-28T08:54:28;5.78;;;2.35;;
45065;SDS011;30830;53.704;10.004;2023-12-28T08:56:53;1.55;;;1.42;;
45065;SDS011;30830;53.704;10.004;2023-12-28T08:59:19;5.60;;;1.90;;
45065;SDS011;30830;53.704;10.004;2023-12-28T09:01:44;6.60;;;2.13;;
45065;SDS011;30830;53.704;10.004;2023-12-28T09:04:10;5.00;;;1.77;;
45065;SDS011;30830;53.704;10.004;2023-12-28T09:06:36;7.53;;;2.00;;
45065;SDS011;30830;53.704;10.004;2023-12-28T09:09:01;3.95;;;1.52;;
45065;SDS011;30830;53.704;10.004;2023-12-28T09:11:28;4.00;;;1.48;;
45065;SDS011;30830;53.704;10.004;2023-12-28T09:13:54;4.40;;;1.70;;
45065;SDS011;30830;53.704;10.004;2023-12-28T09:16:20;5.45;;;1.95;;
45065;SDS011;30830;53.704;10.004;2023-12-28T09:18:46;8.77;;;2.00;;
45065;SDS011;30830;53.704;10.004;2023-12-28T09:21:12;4.68;;;2.15;;
45065;SDS011;30830;53.704;10.004;2023-12-28T09:23:37;3.60;;;1.75;;
45065;SDS011;30830;53.704;10.004;2023-12-28T09:26:03;9.13;;;1.95;;
45065;SDS011;30830;53.704;10.004;2023-12-28T09:28:30;5.30;;;1.80;;
45065;SDS011;30830;53.704;10.004;2023-12-28T09:30:56;5.53;;;1.60;;
45065;SDS011;30830;53.704;10.004;2023-12-28T09:33:22;2.60;;;1.67;;
45065;SDS011;30830;53.704;10.004;2023-12-28T09:35:48;4.72;;;1.70;;
45065;SDS011;30830;53.704;10.004;2023-12-28T09:38:14;8.38;;;2.17;;
45065;SDS011;30830;53.704;10.004;2023-12-28T09:40:43;10.65;;;2.33;;
45065;SDS011;30830;53.704;10.004;2023-12-28T09:45:48;3.97;;;1.60;;
45065;SDS011;30830;53.704;10.004;2023-12-28T09:48:17;6.45;;;2.58;;
45065;SDS011;30830;53.704;10.004;2023-12-28T09:50:51;4.85;;;1.65;;
45065;SDS011;30830;53.704;10.004;2023-12-28T09:53:23;6.15;;;1.77;;
45065;SDS011;30830;53.704;10.004;2023-12-28T09:55:50;5.88;;;2.10;;
45065;SDS011;30830;53.704;10.004;2023-12-28T09:58:19;4.35;;;1.65;;
45065;SDS011;30830;53.704;10.004;2023-12-28T10:00:46;4.53;;;1.40;;
45065;SDS011;30830;53.704;10.004;2023-12-28T10:03:13;10.50;;;1.73;;
45065;SDS011;30830;53.704;10.004;2023-12-28T10:05:46;7.85;;;2.00;;
45065;SDS011;30830;53.704;10.004;2023-12-28T10:08:12;5.60;;;2.35;;
45065;SDS011;30830;53.704;10.004;2023-12-28T10:10:41;8.18;;;1.77;;
45065;SDS011;30830;53.704;10.004;2023-12-28T10:13:08;4.20;;;1.58;;
45065;SDS011;30830;53.704;10.004;2023-12-28T10:15:35;10.38;;;1.90;;
45065;SDS011;30830;53.704;10.004;2023-12-28T10:18:02;6.68;;;1.90;;
45065;SDS011;30830;53.704;10.004;2023-12-28T10:20:29;8.07;;;2.20;;
45065;SDS011;30830;53.704;10.004;2023-12-28T10:22:55;5.57;;;2.08;;
45065;SDS011;30830;53.704;10.004;2023-12-28T10:25:22;8.32;;;2.83;;
45065;SDS011;30830;53.704;10.004;2023-12-28T10:27:52;6.82;;;2.85;;
45065;SDS011;30830;53.704;10.004;2023-12-28T10:30:19;10.65;;;3.55;;
45065;SDS011;30830;53.704;10.004;2023-12-28T10:32:45;9.25;;;3.13;;
45065;SDS011;30830;53.704;10.004;2023-12-28T10:35:11;4.07;;;1.83;;
45065;SDS011;30830;53.704;10.004;2023-12-28T10:37:39;6.15;;;2.00;;
45065;SDS011;30830;53.704;10.004;2023-12-28T10:40:11;6.25;;;1.52;;
45065;SDS011;30830;53.704;10.004;2023-12-28T10:42:44;8.93;;;1.95;;
45065;SDS011;30830;53.704;10.004;2023-12-28T10:45:16;5.68;;;1.88;;
45065;SDS011;30830;53.704;10.004;2023-12-28T10:48:10;7.22;;;2.30;;
45065;SDS011;30830;53.704;10.004;2023-12-28T10:50:46;7.32;;;2.03;;
45065;SDS011;30830;53.704;10.004;2023-12-28T10:59:24;8.88;;;2.33;;
45065;SDS011;30830;53.704;10.004;2023-12-28T11:01:39;8.35;;;1.92;;
45065;SDS011;30830;53.704;10.004;2023-12-28T11:04:07;8.57;;;2.03;;
45065;SDS011;30830;53.704;10.004;2023-12-28T11:06:43;8.98;;;1.60;;
45065;SDS011;30830;53.704;10.004;2023-12-28T11:09:11;6.28;;;1.52;;
45065;SDS011;30830;53.704;10.004;2023-12-28T11:11:37;5.65;;;1.75;;
45065;SDS011;30830;53.704;10.004;2023-12-28T11:14:05;8.77;;;2.83;;
45065;SDS011;30830;53.704;10.004;2023-12-28T11:16:31;10.15;;;2.10;;
45065;SDS011;30830;53.704;10.004;2023-12-28T11:18:58;8.38;;;1.75;;
45065;SDS011;30830;53.704;10.004;2023-12-28T11:21:24;6.60;;;1.95;;
45065;SDS011;30830;53.704;10.004;2023-12-28T11:23:51;6.13;;;1.48;;
45065;SDS011;30830;53.704;10.004;2023-12-28T11:26:23;6.63;;;1.60;;
45065;SDS011;30830;53.704;10.004;2023-12-28T11:28:49;7.90;;;2.00;;
45065;SDS011;30830;53.704;10.004;2023-12-28T11:31:15;6.85;;;2.30;;
45065;SDS011;30830;53.704;10.004;2023-12-28T11:36:10;7.65;;;2.08;;
45065;SDS011;30830;53.704;10.004;2023-12-28T11:38:46;6.30;;;2.30;;
45065;SDS011;30830;53.704;10.004;2023-12-28T11:41:34;4.72;;;1.65;;
45065;SDS011;30830;53.704;10.004;2023-12-28T11:44:01;6.28;;;2.25;;
45065;SDS011;30830;53.704;10.004;2023-12-28T11:46:29;6.30;;;1.73;;
45065;SDS011;30830;53.704;10.004;2023-12-28T11:49:08;7.63;;;2.25;;
45065;SDS011;30830;53.704;10.004;2023-12-28T11:51:35;6.53;;;2.47;;
45065;SDS011;30830;53.704;10.004;2023-12-28T11:54:02;9.30;;;2.38;;
45065;SDS011;30830;53.704;10.004;2023-12-28T11:56:28;11.15;;;2.72;;
45065;SDS011;30830;53.704;10.004;2023-12-28T11:58:54;7.60;;;1.92;;
45065;SDS011;30830;53.704;10.004;2023-12-28T12:01:20;6.90;;;2.38;;
45065;SDS011;30830;53.704;10.004;2023-12-28T12:03:46;8.38;;;2.75;;
45065;SDS011;30830;53.704;10.004;2023-12-28T12:06:12;7.93;;;2.80;;
45065;SDS011;30830;53.704;10.004;2023-12-28T12:08:38;7.68;;;2.75;;
45065;SDS011;30830;53.704;10.004;2023-12-28T12:11:06;14.10;;;3.00;;
45065;SDS011;30830;53.704;10.004;2023-12-28T12:13:33;10.40;;;2.03;;
45065;SDS011;30830;53.704;10.004;2023-12-28T12:15:59;9.13;;;2.42;;
45065;SDS011;30830;53.704;10.004;2023-12-28T12:18:27;9.20;;;2.38;;
45065;SDS011;30830;53.704;10.004;2023-12-28T12:20:57;10.98;;;3.15;;
45065;SDS011;30830;53.704;10.004;2023-12-28T12:23:23;7.55;;;2.28;;
45065;SDS011;30830;53.704;10.004;2023-12-28T12:25:49;9.70;;;1.83;;
45065;SDS011;30830;53.704;10.004;2023-12-28T12:28:14;6.18;;;1.85;;
45065;SDS011;30830;53.704;10.004;2023-12-28T12:30:40;8.45;;;2.40;;
45065;SDS011;30830;53.704;10.004;2023-12-28T12:33:13;7.65;;;2.38;;
45065;SDS011;30830;53.704;10.004;2023-12-28T12:35:40;7.78;;;2.70;;
45065;SDS011;30830;53.704;10.004;2023-12-28T12:38:06;12.60;;;2.63;;
45065;SDS011;30830;53.704;10.004;2023-12-28T12:40:31;5.72;;;1.98;;
45065;SDS011;30830;53.704;10.004;2023-12-28T12:42:58;9.15;;;2.33;;
45065;SDS011;30830;53.704;10.004;2023-12-28T12:45:25;8.50;;;2.20;;
45065;SDS011;30830;53.704;10.004;2023-12-28T12:47:51;6.03;;;2.45;;
45065;SDS011;30830;53.704;10.004;2023-12-28T12:50:17;13.70;;;2.88;;
45065;SDS011;30830;53.704;10.004;2023-12-28T12:52:43;8.00;;;2.13;;
45065;SDS011;30830;53.704;10.004;2023-12-28T12:55:10;7.65;;;2.28;;
45065;SDS011;30830;53.704;10.004;2023-12-28T12:57:37;7.25;;;2.55;;
45065;SDS011;30830;53.704;10.004;2023-12-28T13:00:04;8.13;;;2.28;;
45065;SDS011;30830;53.704;10.004;2023-12-28T13:02:33;8.93;;;2.40;;
45065;SDS011;30830;53.704;10.004;2023-12-28T13:05:01;6.32;;;2.47;;
45065;SDS011;30830;53.704;10.004;2023-12-28T13:07:28;12.15;;;2.45;;
45065;SDS011;30830;53.704;10.004;2023-12-28T13:09:54;8.23;;;2.70;;
45065;SDS011;30830;53.704;10.004;2023-12-28T13:12:19;7.07;;;1.75;;
45065;SDS011;30830;53.704;10.004;2023-12-28T13:14:45;9.18;;;2.58;;
45065;SDS011;30830;53.704;10.004;2023-12-28T13:17:11;7.13;;;2.20;;
45065;SDS011;30830;53.704;10.004;2023-12-28T13:19:37;12.45;;;2.53;;
45065;SDS011;30830;53.704;10.004;2023-12-28T13:22:03;11.10;;;2.25;;
45065;SDS011;30830;53.704;10.004;2023-12-28T13:24:30;4.25;;;2.20;;
45065;SDS011;30830;53.704;10.004;2023-12-28T13:26:56;8.90;;;2.83;;
45065;SDS011;30830;53.704;10.004;2023-12-28T13:29:22;11.07;;;2.85;;
45065;SDS011;30830;53.704;10.004;2023-12-28T13:31:47;12.65;;;2.25;;
45065;SDS011;30830;53.704;10.004;2023-12-28T13:34:15;11.48;;;2.47;;
45065;SDS011;30830;53.704;10.004;2023-12-28T13:36:43;7.00;;;2.15;;
45065;SDS011;30830;53.704;10.004;2023-12-28T13:39:09;8.85;;;2.25;;
45065;SDS011;30830;53.704;10.004;2023-12-28T13:41:37;8.93;;;2.75;;
45065;SDS011;30830;53.704;10.004;2023-12-28T13:44:02;9.90;;;2.80;;
45065;SDS011;30830;53.704;10.004;2023-12-28T13:46:30;13.20;;;3.42;;
45065;SDS011;30830;53.704;10.004;2023-12-28T13:48:56;10.80;;;4.53;;
45065;SDS011;30830;53.704;10.004;2023-12-28T13:51:22;9.30;;;3.95;;
45065;SDS011;30830;53.704;10.004;2023-12-28T13:53:50;13.00;;;4.50;;
45065;SDS011;30830;53.704;10.004;2023-12-28T13:56:16;16.27;;;7.43;;
45065;SDS011;30830;53.704;10.004;2023-12-28T13:58:41;12.52;;;3.63;;
45065;SDS011;30830;53.704;10.004;2023-12-28T14:01:09;14.80;;;5.13;;
45065;SDS011;30830;53.704;10.004;2023-12-28T14:03:34;22.40;;;7.45;;
45065;SDS011;30830;53.704;10.004;2023-12-28T14:06:00;18.48;;;7.20;;
45065;SDS011;30830;53.704;10.004;2023-12-28T14:08:26;20.15;;;9.57;;
45065;SDS011;30830;53.704;10.004;2023-12-28T14:10:51;23.60;;;10.45;;
45065;SDS011;30830;53.704;10.004;2023-12-28T14:13:17;10.25;;;4.97;;
45065;SDS011;30830;53.704;10.004;2023-12-28T14:15:42;14.02;;;7.35;;
45065;SDS011;30830;53.704;10.004;2023-12-28T14:18:08;10.90;;;3.80;;
45065;SDS011;30830;53.704;10.004;2023-12-28T14:20:34;10.13;;;3.17;;
45065;SDS011;30830;53.704;10.004;2023-12-28T14:22:59;10.13;;;2.88;;
45065;SDS011;30830;53.704;10.004;2023-12-28T14:25:26;8.95;;;3.45;;
45065;SDS011;30830;53.704;10.004;2023-12-28T14:27:52;15.93;;;6.07;;
45065;SDS011;30830;53.704;10.004;2023-12-28T14:30:18;13.77;;;4.60;;
45065;SDS011;30830;53.704;10.004;2023-12-28T14:32:44;14.32;;;8.18;;
45065;SDS011;30830;53.704;10.004;2023-12-28T14:35:10;8.02;;;3.40;;
45065;SDS011;30830;53.704;10.004;2023-12-28T14:37:36;8.50;;;3.13;;
45065;SDS011;30830;53.704;10.004;2023-12-28T14:40:02;7.03;;;3.75;;
45065;SDS011;30830;53.704;10.004;2023-12-28T14:42:32;10.95;;;3.22;;
45065;SDS011;30830;53.704;10.004;2023-12-28T14:44:58;9.00;;;2.83;;